Time;durP1;ratioP1;P1;durP2;ratioP2;P2;SDS_P1;SDS_P2;PMS_P1;PMS_P2;Temp;Humidity;BMP_temperature;BMP_pressure;BME280_temperature;BME280_humidity;BME280_pressure;Samples;Min_cycle;Max_cycle;Signal;HPM_P1;HPM_P2
2021/08/17 00:00:12;0.00;0.00;0.62;0.00;0.00;0.62;;;;;19.50;3.20;;;;;;2269179;61;1056;-84
2021/08/17 00:02:39;1927.00;0.01;3.96;0.00;0.00;0.62;;;;;19.80;1.00;;;;;;2265679;61;1119;-84
2021/08/17 00:05:08;0.00;0.00;0.62;0.00;0.00;0.62;;;;;20.10;1.00;;;;;;2276078;61;1463;-84
2021/08/17 00:07:37;0.00;0.00;0.62;0.00;0.00;0.62;;;;;20.20;1.00;;;;;;2265889;61;989;-84
2021/08/17 00:10:04;0.00;0.00;0.62;0.00;0.00;0.62;;;;;20.30;1.00;;;;;;2265954;61;1019;-85
2021/08/17 00:12:31;42042.00;0.14;73.42;0.00;0.00;0.62;;;;;20.50;1.00;;;;;;2265928;61;973;-86
2021/08/17 00:14:58;137067.00;0.46;237.51;39271.00;0.13;68.63;;;;;20.70;1.00;;;;;;2268857;61;1422;-87
2021/08/17 00:17:25;6449.00;0.02;11.80;0.00;0.00;0.62;;;;;20.50;1.00;;;;;;2265606;61;1942;-87
2021/08/17 00:19:52;23104.00;0.08;40.64;0.00;0.00;0.62;;;;;20.70;1.00;;;;;;2269035;61;1153;-87
2021/08/17 00:22:22;0.00;0.00;0.62;0.00;0.00;0.62;;;;;20.90;1.00;;;;;;2269011;61;1058;-87
2021/08/17 00:24:51;0.00;0.00;0.62;0.00;0.00;0.62;;;;;21.00;1.00;;;;;;2272253;61;1432;-87
2021/08/17 00:27:19;0.00;0.00;0.62;0.00;0.00;0.62;;;;;21.00;1.00;;;;;;2269088;61;1062;-87
2021/08/17 00:29:47;0.00;0.00;0.62;0.00;0.00;0.62;;;;;21.20;1.00;;;;;;2272364;61;1157;-86
2021/08/17 00:32:14;18626.00;0.06;32.89;0.00;0.00;0.62;;;;;21.30;1.00;;;;;;2272243;61;930;-87
2021/08/17 00:34:41;0.00;0.00;0.62;0.00;0.00;0.62;;;;;21.60;1.00;;;;;;2269053;61;1341;-87
2021/08/17 00:37:07;59682.00;0.20;103.93;0.00;0.00;0.62;;;;;21.70;1.00;;;;;;2269152;61;2005;-86
2021/08/17 00:39:37;75152.00;0.25;130.66;0.00;0.00;0.62;;;;;21.30;1.00;;;;;;2269236;61;954;-87
2021/08/17 00:42:07;0.00;0.00;0.62;0.00;0.00;0.62;;;;;21.20;1.00;;;;;;2276121;61;1121;-87
2021/08/17 00:44:34;58203.00;0.19;101.37;0.00;0.00;0.62;;;;;21.30;1.00;;;;;;2268690;61;1436;-87
2021/08/17 00:47:02;22600.00;0.08;39.77;0.00;0.00;0.62;;;;;21.40;1.00;;;;;;2268776;61;1138;-87
2021/08/17 00:55:21;441830.00;1.47;761.73;0.00;0.00;0.62;;;;;20.60;1.00;;;;;;2281550;61;1427;-87
2021/08/17 00:57:49;317645.00;1.06;548.25;0.00;0.00;0.62;;;;;20.50;1.00;;;;;;2279526;61;1926;-84
2021/08/17 01:00:17;444292.00;1.48;765.96;0.00;0.00;0.62;;;;;20.10;1.00;;;;;;2279797;61;1073;-85
2021/08/17 01:02:46;437182.00;1.46;753.74;0.00;0.00;0.62;;;;;20.00;1.00;;;;;;2279654;61;1086;-85
2021/08/17 01:05:13;230668.00;0.77;398.70;24764.00;0.08;43.52;;;;;20.20;1.00;;;;;;2271860;61;1493;-85
2021/08/17 01:07:41;219887.00;0.73;380.15;0.00;0.00;0.62;;;;;19.80;1.00;;;;;;2266514;61;1243;-85
2021/08/17 01:10:11;269844.00;0.90;466.08;0.00;0.00;0.62;;;;;20.10;1.00;;;;;;2266678;61;1072;-85
2021/08/17 01:12:38;341261.00;1.14;588.84;0.00;0.00;0.62;;;;;20.10;1.00;;;;;;2266677;61;1170;-85
2021/08/17 01:15:09;331241.00;1.10;571.62;0.00;0.00;0.62;;;;;19.80;1.00;;;;;;2266702;61;1305;-85
2021/08/17 01:17:35;434541.00;1.45;749.19;0.00;0.00;0.62;;;;;19.30;1.00;;;;;;2267257;61;2019;-85
2021/08/17 01:20:02;509165.00;1.70;877.60;0.00;0.00;0.62;;;;;19.10;1.00;;;;;;2267283;61;1074;-85
2021/08/17 01:22:29;344040.00;1.15;593.62;0.00;0.00;0.62;;;;;19.30;1.00;;;;;;2263929;61;1141;-85
2021/08/17 01:24:57;393817.00;1.31;679.18;0.00;0.00;0.62;;;;;18.90;1.00;;;;;;2269030;61;1439;-84
2021/08/17 01:27:25;556037.00;1.85;958.37;0.00;0.00;0.62;;;;;19.20;1.00;;;;;;2272483;61;1267;-84
2021/08/17 01:29:52;300910.00;1.00;519.48;0.00;0.00;0.62;;;;;19.30;1.00;;;;;;2272211;61;1416;-85
2021/08/17 01:32:18;202039.00;0.67;349.43;0.00;0.00;0.62;;;;;19.80;1.00;;;;;;2280127;60;1251;-86
2021/08/17 01:34:45;269195.00;0.90;464.96;15032.00;0.05;26.67;;;;;19.60;1.00;;;;;;2279135;61;1433;-85
2021/08/17 01:37:12;263929.00;0.88;455.90;0.00;0.00;0.62;;;;;19.40;1.00;;;;;;2279495;61;2012;-85
2021/08/17 01:39:39;386269.00;1.29;666.20;0.00;0.00;0.62;;;;;19.70;1.00;;;;;;2279594;61;1050;-85
2021/08/17 01:42:06;486850.00;1.62;839.19;0.00;0.00;0.62;;;;;19.70;1.00;;;;;;2279646;61;1257;-85
2021/08/17 01:44:34;348305.00;1.16;600.95;0.00;0.00;0.62;;;;;19.50;1.00;;;;;;2272379;61;1470;-85
2021/08/17 01:47:01;425897.00;1.42;734.33;0.00;0.00;0.62;;;;;19.30;1.00;;;;;;2272735;61;1168;-85
2021/08/17 01:49:28;546414.00;1.82;941.78;70638.00;0.24;122.86;;;;;19.50;1.00;;;;;;2279750;61;1256;-85
2021/08/17 01:51:55;540463.00;1.80;931.52;77158.00;0.26;134.13;;;;;19.40;1.00;;;;;;2272461;61;1241;-85
2021/08/17 01:54:22;637886.00;2.13;1099.68;72276.00;0.24;125.69;;;;;19.50;1.00;;;;;;2279684;61;1413;-85
2021/08/17 01:56:49;405051.00;1.35;698.49;73886.00;0.25;128.47;;;;;19.50;1.00;;;;;;2272468;61;2006;-85
2021/08/17 01:59:16;488217.00;1.63;841.54;84114.00;0.28;146.14;;;;;19.40;1.00;;;;;;2272944;61;1318;-85
2021/08/17 02:01:45;597677.00;1.99;1030.21;73965.00;0.25;128.61;;;;;19.50;1.00;;;;;;2279846;61;1116;-85
2021/08/17 02:04:12;494232.00;1.65;851.89;2946.00;0.01;5.73;;;;;19.50;1.00;;;;;;2279630;61;1436;-85
2021/08/17 02:06:39;719075.00;2.40;1240.33;81906.00;0.27;142.33;;;;;19.70;1.00;;;;;;2280176;61;1136;-85
2021/08/17 02:09:06;467494.00;1.56;805.88;69245.00;0.23;120.46;;;;;19.90;1.00;;;;;;2272876;61;1183;-85
2021/08/17 02:11:33;401593.00;1.34;692.54;72717.00;0.24;126.46;;;;;19.60;1.00;;;;;;2272739;61;1294;-85
2021/08/17 02:13:59;492188.00;1.64;848.38;64579.00;0.22;112.39;;;;;19.90;1.00;;;;;;2273075;61;1419;-85
2021/08/17 02:16:26;509478.00;1.70;878.14;76555.00;0.26;133.09;;;;;20.10;1.00;;;;;;2272677;61;1930;-85
2021/08/17 02:18:54;467750.00;1.56;806.32;77433.00;0.26;134.60;;;;;20.30;1.00;;;;;;2279831;61;1176;-85
2021/08/17 02:21:21;566931.00;1.89;977.15;73530.00;0.25;127.86;;;;;20.50;1.00;;;;;;2272906;61;1174;-85
2021/08/17 02:23:48;543661.00;1.81;937.03;76473.00;0.25;132.94;;;;;20.40;1.00;;;;;;2280061;61;1336;-85
2021/08/17 02:26:15;652228.00;2.17;1124.49;92346.00;0.31;160.36;;;;;20.30;1.00;;;;;;2272722;61;1252;-85
2021/08/17 02:28:42;510109.00;1.70;879.23;76768.00;0.26;133.45;;;;;20.20;1.00;;;;;;2280040;61;1153;-85
2021/08/17 02:31:08;437302.00;1.46;753.94;73016.00;0.24;126.97;;;;;20.50;1.00;;;;;;2272843;61;1153;-85
2021/08/17 02:33:35;497698.00;1.66;857.86;71242.00;0.24;123.91;;;;;20.00;1.00;;;;;;2272819;61;1311;-85
2021/08/17 02:36:04;489808.00;1.63;844.28;78036.00;0.26;135.64;;;;;19.90;1.00;;;;;;2271394;61;1925;-84
2021/08/17 02:38:31;674350.00;2.25;1162.79;98731.00;0.33;171.38;;;;;20.30;1.00;;;;;;2264927;61;1149;-86
2021/08/17 02:40:58;496754.00;1.66;856.24;75750.00;0.25;131.70;;;;;20.60;1.00;;;;;;2265074;61;1203;-85
2021/08/17 02:43:25;448506.00;1.50;773.21;77191.00;0.26;134.18;;;;;20.90;1.00;;;;;;2271599;61;1406;-85
2021/08/17 02:45:52;573831.00;1.91;989.06;79639.00;0.27;138.41;;;;;20.30;1.00;;;;;;2268353;61;981;-85
2021/08/17 02:48:20;587798.00;1.96;1013.16;75309.00;0.25;130.93;;;;;20.00;1.00;;;;;;2271874;61;1086;-85
2021/08/17 02:50:47;590559.00;1.97;1017.92;71980.00;0.24;125.18;;;;;20.30;1.00;;;;;;2271444;61;1075;-83
2021/08/17 02:53:16;612421.00;2.04;1055.67;71901.00;0.24;125.05;;;;;19.80;1.00;;;;;;2272291;61;1123;-85
2021/08/17 02:55:42;598370.00;1.99;1031.41;72941.00;0.24;126.84;;;;;19.60;1.00;;;;;;2279634;61;1295;-84
2021/08/17 02:58:09;453996.00;1.51;782.66;71162.00;0.24;123.77;;;;;19.40;1.00;;;;;;2273058;61;1934;-85
2021/08/17 03:00:37;468839.00;1.56;808.19;89955.00;0.30;156.23;;;;;18.80;1.00;;;;;;2280304;61;947;-85
2021/08/17 03:03:04;470335.00;1.57;810.77;74641.00;0.25;129.78;;;;;18.90;1.00;;;;;;2279839;61;1192;-85
2021/08/17 03:05:31;453236.00;1.51;781.35;77527.00;0.26;134.77;;;;;19.00;1.00;;;;;;2272796;61;1287;-85
2021/08/17 03:08:03;561462.00;1.87;967.72;77663.00;0.26;135.00;;;;;18.90;1.00;;;;;;2273521;60;955;-84
2021/08/17 03:10:33;332525.00;1.11;573.83;0.00;0.00;0.62;;;;;18.90;1.00;;;;;;2279745;60;1634;-84
2021/08/17 03:13:00;470882.00;1.57;811.71;0.00;0.00;0.62;;;;;19.00;1.00;;;;;;2268963;61;1015;-84
2021/08/17 03:15:32;292968.00;0.98;505.83;0.00;0.00;0.62;;;;;19.20;1.00;;;;;;2272687;61;1462;-85
2021/08/17 03:17:59;274762.00;0.92;474.53;0.00;0.00;0.62;;;;;19.70;1.00;;;;;;2280074;61;1994;-85
2021/08/17 03:20:27;384276.00;1.28;662.78;0.00;0.00;0.62;;;;;20.10;1.00;;;;;;2278917;61;1080;-84
2021/08/17 03:22:54;440809.00;1.47;759.97;8993.00;0.03;16.20;;;;;20.10;1.00;;;;;;2279316;61;1103;-85
2021/08/17 03:25:22;480186.00;1.60;827.72;0.00;0.00;0.62;;;;;19.80;1.00;;;;;;2279231;61;1387;-85
2021/08/17 03:27:51;336745.00;1.12;581.08;0.00;0.00;0.62;;;;;19.60;1.00;;;;;;2279259;61;1263;-85
2021/08/17 03:30:20;443745.00;1.48;765.02;0.00;0.00;0.62;;;;;19.60;1.00;;;;;;2271866;61;1161;-85
2021/08/17 03:32:47;257857.00;0.86;445.46;0.00;0.00;0.62;;;;;19.30;1.00;;;;;;2277990;61;1080;-83
2021/08/17 03:35:15;371717.00;1.24;641.19;0.00;0.00;0.62;;;;;19.20;1.00;;;;;;2271634;61;1413;-84
2021/08/17 03:37:42;376522.00;1.26;649.45;0.00;0.00;0.62;;;;;19.20;1.00;;;;;;2277862;61;1992;-84
2021/08/17 03:40:12;314656.00;1.05;543.11;0.00;0.00;0.62;;;;;19.50;1.00;;;;;;2275879;61;1133;-84
2021/08/17 03:42:40;493002.00;1.64;849.78;7115.00;0.02;12.95;;;;;19.00;1.00;;;;;;2275304;61;1271;-84
2021/08/17 03:45:10;645396.00;2.15;1112.67;83637.00;0.28;145.32;;;;;18.70;1.00;;;;;;2275697;61;1368;-84
2021/08/17 03:47:37;696229.00;2.32;1200.70;17308.00;0.06;30.61;;;;;19.10;1.00;;;;;;2275856;61;1066;-84
2021/08/17 03:50:06;548360.00;1.83;945.13;27255.00;0.09;47.83;;;;;19.60;1.00;;;;;;2275341;61;1149;-84
2021/08/17 03:52:33;324410.00;1.08;559.88;0.00;0.00;0.62;;;;;19.50;1.00;;;;;;2275715;61;1163;-84
2021/08/17 03:55:00;411227.00;1.37;709.11;0.00;0.00;0.62;;;;;19.40;1.00;;;;;;2275836;61;1321;-84
2021/08/17 03:57:27;366306.00;1.22;631.89;6040.00;0.02;11.09;;;;;18.60;1.00;;;;;;2275813;61;1935;-84
2021/08/17 03:59:54;406560.00;1.36;701.08;16866.00;0.06;29.84;;;;;18.30;1.00;;;;;;2275888;61;1287;-84
2021/08/17 04:02:22;608817.00;2.03;1049.45;19338.00;0.06;34.12;;;;;17.90;1.00;;;;;;2275242;61;1116;-84
2021/08/17 04:04:49;587352.00;1.96;1012.39;8909.00;0.03;16.06;;;;;17.60;1.00;;;;;;2275831;61;1606;-84
2021/08/17 04:07:16;504903.00;1.68;870.27;40083.00;0.13;70.03;;;;;17.50;1.00;;;;;;2268844;61;1133;-84
2021/08/17 04:09:43;386081.00;1.29;665.88;12097.00;0.04;21.58;;;;;17.50;1.00;;;;;;2276098;61;1126;-84
2021/08/17 04:12:10;384022.00;1.28;662.34;0.00;0.00;0.62;;;;;17.00;1.00;;;;;;2276246;61;1141;-84
2021/08/17 04:14:37;451658.00;1.51;778.63;33484.00;0.11;58.61;;;;;16.50;1.00;;;;;;2275710;61;1402;-84
2021/08/17 04:17:04;831399.00;2.77;1435.94;76589.00;0.26;133.14;;;;;16.50;1.00;;;;;;2274885;61;2015;-83
2021/08/17 04:19:32;436519.00;1.46;752.60;21452.00;0.07;37.78;;;;;16.80;1.00;;;;;;2275267;61;1160;-84
2021/08/17 04:21:59;683683.00;2.28;1178.95;56618.00;0.19;98.63;;;;;17.20;1.00;;;;;;2275649;61;1181;-84
2021/08/17 04:24:29;497284.00;1.66;857.15;48830.00;0.16;85.16;;;;;17.80;1.00;;;;;;2268418;61;1377;-84
2021/08/17 04:26:56;736364.00;2.45;1270.36;7599.00;0.03;13.79;;;;;18.60;1.00;;;;;;2275230;61;1164;-84
2021/08/17 04:29:23;414400.00;1.38;714.56;0.00;0.00;0.62;;;;;18.70;1.00;;;;;;2275493;61;1107;-84
2021/08/17 04:31:50;525184.00;1.75;905.19;10693.00;0.04;19.15;;;;;18.90;1.00;;;;;;2277652;61;1192;-84
2021/08/17 04:34:17;499438.00;1.66;860.86;3462.00;0.01;6.62;;;;;18.90;1.00;;;;;;2277054;61;1370;-84
2021/08/17 04:36:45;551068.00;1.84;949.80;34778.00;0.12;60.85;;;;;18.70;1.00;;;;;;2279803;61;2000;-84
2021/08/17 04:39:12;675337.00;2.25;1164.50;61591.00;0.21;107.23;;;;;18.60;1.00;;;;;;2279469;61;1151;-84
2021/08/17 04:41:39;425751.00;1.42;734.08;34996.00;0.12;61.23;;;;;18.50;1.00;;;;;;2276385;61;1224;-84
2021/08/17 04:44:06;586592.00;1.96;1011.07;0.00;0.00;0.62;;;;;18.80;1.00;;;;;;2276729;61;1372;-84
2021/08/17 04:46:33;568310.00;1.89;979.53;35799.00;0.12;62.62;;;;;19.20;1.00;;;;;;2277208;61;1232;-84
2021/08/17 04:49:00;596790.00;1.99;1028.68;56008.00;0.19;97.58;;;;;19.30;1.00;;;;;;2276901;61;1136;-84
2021/08/17 04:51:27;539235.00;1.80;929.40;10088.00;0.03;18.10;;;;;19.10;1.00;;;;;;2276444;61;1275;-84
2021/08/17 04:53:56;504968.00;1.68;870.38;17146.00;0.06;30.33;;;;;19.20;1.00;;;;;;2269071;61;1282;-84
2021/08/17 04:56:23;718458.00;2.39;1239.26;15946.00;0.05;28.25;;;;;19.40;1.00;;;;;;2276552;61;1034;-84
2021/08/17 04:58:51;566592.00;1.89;976.57;4640.00;0.02;8.66;;;;;19.60;1.00;;;;;;2276245;61;2029;-84
2021/08/17 05:01:18;526264.00;1.75;907.06;31829.00;0.11;55.75;;;;;19.70;1.00;;;;;;2275964;61;1160;-84
2021/08/17 05:03:45;481423.00;1.60;829.85;45616.00;0.15;79.60;;;;;19.90;1.00;;;;;;2276469;61;1444;-85
2021/08/17 05:06:12;455211.00;1.52;784.75;0.00;0.00;0.62;;;;;19.90;1.00;;;;;;2276689;61;1080;-84
2021/08/17 05:08:39;757237.00;2.52;1306.64;102863.00;0.34;178.51;;;;;19.80;1.00;;;;;;2276229;61;1174;-84
2021/08/17 05:11:07;375723.00;1.25;648.07;21513.00;0.07;37.89;;;;;19.90;1.00;;;;;;2276915;61;1172;-85
2021/08/17 05:13:34;785013.00;2.62;1355.00;98533.00;0.33;171.04;;;;;19.70;1.00;;;;;;2276886;61;1468;-84
2021/08/17 05:16:01;583635.00;1.95;1005.97;83839.00;0.28;145.67;;;;;19.60;1.00;;;;;;2276802;61;1096;-85
2021/08/17 05:18:32;700398.00;2.33;1207.93;93846.00;0.31;162.95;;;;;19.20;1.00;;;;;;2277055;61;2002;-84
2021/08/17 05:20:59;595279.00;1.98;1026.07;73151.00;0.24;127.21;;;;;19.40;1.00;;;;;;2276928;61;1167;-84
2021/08/17 05:23:26;692653.00;2.31;1194.50;39390.00;0.13;68.83;;;;;19.00;1.00;;;;;;2269198;61;1393;-84
2021/08/17 05:25:53;554823.00;1.85;956.27;10480.00;0.03;18.78;;;;;18.80;1.00;;;;;;2276607;61;1176;-84
2021/08/17 05:28:22;672358.00;2.24;1159.34;52028.00;0.17;90.69;;;;;18.80;1.00;;;;;;2277346;61;1052;-85
2021/08/17 05:30:49;601739.00;2.01;1037.22;14117.00;0.05;25.08;;;;;18.80;1.00;;;;;;2269142;61;1180;-84
2021/08/17 05:33:17;496361.00;1.65;855.56;33548.00;0.11;58.72;;;;;18.70;1.00;;;;;;2276850;61;1100;-85
2021/08/17 05:35:44;489526.00;1.63;843.79;11582.00;0.04;20.69;;;;;18.90;1.00;;;;;;2276317;61;1648;-85
2021/08/17 05:38:11;701681.00;2.34;1210.15;40013.00;0.13;69.91;;;;;19.60;1.00;;;;;;2277636;61;2004;-85
2021/08/17 05:40:38;435795.00;1.45;751.35;47107.00;0.16;82.18;;;;;20.50;1.00;;;;;;2277473;61;1168;-84
2021/08/17 05:43:05;584466.00;1.95;1007.41;6482.00;0.02;11.85;;;;;21.50;1.00;;;;;;2277519;61;1172;-85
2021/08/17 05:45:34;465041.00;1.55;801.66;36575.00;0.12;63.96;;;;;22.50;1.00;;;;;;2276107;61;1372;-85
2021/08/17 05:48:01;742142.00;2.47;1280.40;46573.00;0.16;81.26;;;;;23.40;1.00;;;;;;2276272;61;1152;-82
2021/08/17 05:50:28;514677.00;1.72;887.10;0.00;0.00;0.62;;;;;24.30;1.00;;;;;;2277037;61;1136;-84
2021/08/17 05:52:55;551673.00;1.84;950.84;36907.00;0.12;64.54;;;;;23.90;1.00;;;;;;2276107;61;1240;-85
2021/08/17 05:55:22;545897.00;1.82;940.89;44354.00;0.15;77.42;;;;;24.50;1.00;;;;;;2268429;61;1403;-85
2021/08/17 05:57:57;362366.00;1.21;625.12;46816.00;0.16;81.68;;;;;25.10;1.00;;;;;;2269186;61;1915;-85
2021/08/17 06:00:24;4656.00;0.02;8.69;0.00;0.00;0.62;;;;;25.90;1.00;;;;;;2277379;61;1114;-84
2021/08/17 06:02:52;0.00;0.00;0.62;0.00;0.00;0.62;;;;;26.60;1.00;;;;;;2279573;60;1149;-84
2021/08/17 06:05:20;145954.00;0.49;252.83;4602.00;0.02;8.60;;;;;27.10;1.00;;;;;;2280767;60;1356;-84
2021/08/17 06:07:47;254169.00;0.85;439.12;16138.00;0.05;28.58;;;;;27.70;1.00;;;;;;2279045;60;1161;-87
2021/08/17 06:10:14;70974.00;0.24;123.44;0.00;0.00;0.62;;;;;28.50;1.00;;;;;;2277843;61;1105;-85
2021/08/17 06:12:41;157234.00;0.52;272.27;0.00;0.00;0.62;;;;;28.30;1.00;;;;;;2271204;61;1117;-85
2021/08/17 06:15:10;279519.00;0.93;482.71;370.00;0.00;1.26;;;;;28.00;1.00;;;;;;2271420;61;1368;-85
2021/08/17 06:17:36;392829.00;1.31;677.48;24972.00;0.08;43.88;;;;;27.40;1.00;;;;;;2278536;61;1923;-85
2021/08/17 06:20:06;311917.00;1.04;538.40;0.00;0.00;0.62;;;;;27.30;1.00;;;;;;2277958;61;1125;-85
2021/08/17 06:22:33;410722.00;1.37;708.24;64683.00;0.22;112.57;;;;;27.60;1.00;;;;;;2271717;61;1149;-85
2021/08/17 06:25:00;360217.00;1.20;621.42;0.00;0.00;0.62;;;;;28.00;1.00;;;;;;2272102;61;1340;-88
2021/08/17 06:27:27;707874.00;2.36;1220.90;0.00;0.00;0.62;;;;;28.70;1.00;;;;;;2279139;61;1176;-88
2021/08/17 06:29:54;404079.00;1.35;696.82;3693.00;0.01;7.02;;;;;29.10;1.00;;;;;;2273333;61;1058;-86
2021/08/17 06:32:21;296619.00;0.99;512.11;0.00;0.00;0.62;;;;;28.90;1.00;;;;;;2273037;61;1069;-86
2021/08/17 06:34:48;333367.00;1.11;575.27;16057.00;0.05;28.44;;;;;29.40;1.00;;;;;;2279770;61;1375;-86
2021/08/17 06:37:17;607201.00;2.02;1046.66;31235.00;0.10;54.72;;;;;29.40;1.00;;;;;;2279338;61;2006;-86
2021/08/17 06:39:44;474313.00;1.58;817.61;4949.00;0.02;9.20;;;;;29.40;1.00;;;;;;2273126;61;1157;-86
2021/08/17 06:42:10;373877.00;1.25;644.90;0.00;0.00;0.62;;;;;29.90;1.00;;;;;;2273599;61;1065;-86
2021/08/17 06:44:37;357462.00;1.19;616.69;26935.00;0.09;47.28;;;;;29.70;1.00;;;;;;2280539;60;1327;-87
2021/08/17 06:47:04;239554.00;0.80;413.98;0.00;0.00;0.62;;;;;30.20;1.00;;;;;;2273480;61;1060;-86
2021/08/17 06:49:31;386918.00;1.29;667.32;4432.00;0.01;8.30;;;;;30.00;1.00;;;;;;2271981;61;974;-86
2021/08/17 06:51:58;487086.00;1.62;839.59;43008.00;0.14;75.09;;;;;29.00;1.00;;;;;;2265331;61;1129;-83
2021/08/17 06:54:26;292357.00;0.97;504.78;0.00;0.00;0.62;;;;;27.80;1.00;;;;;;2268495;61;1411;-86
2021/08/17 06:56:53;596757.00;1.99;1028.62;4824.00;0.02;8.98;;;;;27.80;1.00;;;;;;2265107;61;995;-87
2021/08/17 06:59:20;438871.00;1.46;756.64;10523.00;0.04;18.86;;;;;27.90;1.00;;;;;;2264820;61;2013;-87
2021/08/17 07:01:47;350136.00;1.17;604.09;21237.00;0.07;37.41;;;;;28.10;1.00;;;;;;2268375;61;1137;-86
2021/08/17 07:04:14;310572.00;1.04;536.09;0.00;0.00;0.62;;;;;28.40;1.00;;;;;;2264415;61;1282;-87
2021/08/17 07:06:40;417952.00;1.39;720.67;0.00;0.00;0.62;;;;;28.70;1.00;;;;;;2271863;61;1037;-87
2021/08/17 07:09:07;263311.00;0.88;454.84;0.00;0.00;0.62;;;;;28.00;1.00;;;;;;2272748;61;1272;-85
2021/08/17 07:11:36;245353.00;0.82;423.96;0.00;0.00;0.62;;;;;27.10;1.00;;;;;;2280309;61;1268;-85
2021/08/17 07:14:02;292982.00;0.98;505.86;0.00;0.00;0.62;;;;;26.60;1.00;;;;;;2279980;60;1406;-83
2021/08/17 07:16:29;529583.00;1.77;912.77;57865.00;0.19;100.79;;;;;26.90;1.00;;;;;;2280366;61;1077;-82
2021/08/17 07:18:56;267840.00;0.89;462.63;23867.00;0.08;41.97;;;;;26.60;1.00;;;;;;2280512;60;1992;-83
2021/08/17 07:21:23;509299.00;1.70;877.84;82223.00;0.27;142.88;;;;;26.70;1.00;;;;;;2273390;60;990;-82
2021/08/17 07:23:50;393928.00;1.31;679.37;0.00;0.00;0.62;;;;;26.60;1.00;;;;;;2273372;61;1499;-83
2021/08/17 07:26:18;341697.00;1.14;589.59;0.00;0.00;0.62;;;;;26.90;1.00;;;;;;2273430;60;1021;-85
2021/08/17 07:28:47;230460.00;0.77;398.34;0.00;0.00;0.62;;;;;27.30;1.00;;;;;;2273456;61;963;-86
2021/08/17 07:31:14;221495.00;0.74;382.92;0.00;0.00;0.62;;;;;28.00;1.00;;;;;;2273444;60;970;-85
2021/08/17 07:33:41;305018.00;1.02;526.55;0.00;0.00;0.62;;;;;28.80;1.00;;;;;;2273404;60;1454;-85
2021/08/17 07:36:07;249206.00;0.83;430.59;0.00;0.00;0.62;;;;;29.00;1.00;;;;;;2280546;60;1118;-85
2021/08/17 07:38:34;171359.00;0.57;296.61;0.00;0.00;0.62;;;;;29.60;1.00;;;;;;2273433;60;2006;-85
2021/08/17 07:41:01;232626.00;0.78;402.07;0.00;0.00;0.62;;;;;29.60;1.00;;;;;;2280489;60;1010;-85
2021/08/17 07:43:28;338106.00;1.13;583.42;0.00;0.00;0.62;;;;;29.90;1.00;;;;;;2280443;60;1324;-86
2021/08/17 07:45:56;504822.00;1.68;870.13;71496.00;0.24;124.35;;;;;30.30;1.00;;;;;;2273272;61;985;-86
2021/08/17 07:48:23;299768.00;1.00;517.52;0.00;0.00;0.62;;;;;30.60;1.00;;;;;;2273320;60;971;-85
2021/08/17 07:50:51;339647.00;1.13;586.07;57166.00;0.19;99.58;;;;;30.70;1.00;;;;;;2273308;60;968;-86
2021/08/17 07:53:17;237047.00;0.79;409.67;0.00;0.00;0.62;;;;;30.30;1.00;;;;;;2280483;60;1010;-86
2021/08/17 07:55:44;362264.00;1.21;624.94;18065.00;0.06;31.92;;;;;30.40;1.00;;;;;;2273266;60;1412;-86
2021/08/17 07:58:11;565551.00;1.89;974.77;41456.00;0.14;72.41;;;;;30.50;1.00;;;;;;2273211;60;1925;-85
2021/08/17 08:00:38;395376.00;1.32;681.86;0.00;0.00;0.62;;;;;30.40;1.00;;;;;;2273310;60;990;-86
2021/08/17 08:03:06;479995.00;1.60;827.39;38155.00;0.13;66.70;;;;;30.50;1.00;;;;;;2270014;60;923;-85
2021/08/17 08:05:33;171851.00;0.57;297.45;0.00;0.00;0.62;;;;;30.20;1.00;;;;;;2276650;61;1321;-86
2021/08/17 08:08:00;305821.00;1.02;527.93;4065.00;0.01;7.67;;;;;29.80;1.00;;;;;;2273309;61;974;-85
2021/08/17 08:10:28;313743.00;1.05;541.54;0.00;0.00;0.62;;;;;29.00;1.00;;;;;;2273305;60;1024;-85
2021/08/17 08:12:55;297341.00;0.99;513.35;0.00;0.00;0.62;;;;;29.20;1.00;;;;;;2269883;61;1022;-86
2021/08/17 08:15:22;543755.00;1.81;937.19;13153.00;0.04;23.41;;;;;29.30;1.00;;;;;;2273257;60;1480;-85
2021/08/17 08:17:49;567935.00;1.89;978.89;22316.00;0.07;39.28;;;;;29.50;1.00;;;;;;2273194;61;2004;-85
2021/08/17 08:20:17;477424.00;1.59;822.96;0.00;0.00;0.62;;;;;29.50;1.00;;;;;;2273045;61;968;-84
2021/08/17 08:22:44;598072.00;1.99;1030.89;3251.00;0.01;6.25;;;;;29.30;1.00;;;;;;2273299;61;977;-86
2021/08/17 08:25:12;379757.00;1.27;655.01;0.00;0.00;0.62;;;;;29.00;1.00;;;;;;2273209;60;1480;-83
2021/08/17 08:27:39;373902.00;1.25;644.94;0.00;0.00;0.62;;;;;27.60;1.00;;;;;;2273245;61;1157;-84
2021/08/17 08:30:08;320100.00;1.07;552.47;31539.00;0.11;55.25;;;;;26.50;1.00;;;;;;2280413;60;1144;-83
2021/08/17 08:32:35;355046.00;1.18;612.53;3695.00;0.01;7.02;;;;;27.10;1.00;;;;;;2273153;60;1109;-83
2021/08/17 08:35:02;277829.00;0.93;479.80;0.00;0.00;0.62;;;;;26.70;1.00;;;;;;2271424;61;1396;-85
2021/08/17 08:37:30;322190.00;1.07;556.06;0.00;0.00;0.62;;;;;27.00;1.00;;;;;;2268375;61;1008;-83
2021/08/17 08:39:57;730175.00;2.43;1259.61;7253.00;0.02;13.19;;;;;27.30;1.00;;;;;;2268344;61;1928;-84
2021/08/17 08:42:25;541068.00;1.80;932.56;0.00;0.00;0.62;;;;;27.80;1.00;;;;;;2261744;61;949;-86
2021/08/17 08:44:53;294565.00;0.98;508.58;0.00;0.00;0.62;;;;;28.40;1.00;;;;;;2268199;61;1313;-83
2021/08/17 08:47:21;578045.00;1.93;996.33;39040.00;0.13;68.23;;;;;27.80;1.00;;;;;;2261748;61;977;-84
2021/08/17 08:49:52;665992.00;2.22;1148.31;8523.00;0.03;15.39;;;;;27.80;1.00;;;;;;2265013;61;1018;-84
2021/08/17 08:52:20;599231.00;2.00;1032.89;10280.00;0.03;18.43;;;;;27.70;1.00;;;;;;2272946;61;1041;-84
2021/08/17 08:54:48;317101.00;1.06;547.32;0.00;0.00;0.62;;;;;28.10;1.00;;;;;;2273143;60;1358;-85
2021/08/17 08:57:15;276243.00;0.92;477.08;0.00;0.00;0.62;;;;;28.00;1.00;;;;;;2271592;61;1083;-85
2021/08/17 08:59:42;317290.00;1.06;547.64;0.00;0.00;0.62;;;;;27.00;1.00;;;;;;2261342;61;1920;-84
2021/08/17 09:02:11;310425.00;1.03;535.84;34536.00;0.12;60.43;;;;;26.50;1.00;;;;;;2264792;61;974;-85
2021/08/17 09:04:39;312254.00;1.04;538.98;0.00;0.00;0.62;;;;;25.30;1.00;;;;;;2267966;61;1446;-83
2021/08/17 09:07:06;395534.00;1.32;682.13;0.00;0.00;0.62;;;;;25.60;1.00;;;;;;2264779;61;1180;-83
2021/08/17 09:09:34;432777.00;1.44;746.16;7621.00;0.03;13.83;;;;;25.50;1.00;;;;;;2268245;61;947;-82
2021/08/17 09:12:03;578178.00;1.93;996.56;91214.00;0.30;158.40;;;;;25.30;1.00;;;;;;2264957;61;1008;-84
2021/08/17 09:14:32;175099.00;0.58;303.05;67577.00;0.23;117.57;;;;;25.30;1.00;;;;;;2269346;61;1358;-83
2021/08/17 09:17:01;167653.00;0.56;290.22;57364.00;0.19;99.92;;;;;25.50;1.00;;;;;;2272993;61;1015;-83
2021/08/17 09:19:32;172247.00;0.57;298.14;67043.00;0.22;116.65;;;;;25.60;1.00;;;;;;2273087;61;2002;-84
2021/08/17 09:22:02;169718.00;0.57;293.78;74117.00;0.25;128.87;;;;;25.70;1.00;;;;;;2272977;61;977;-83
2021/08/17 09:24:32;168919.00;0.56;292.40;65344.00;0.22;113.71;;;;;25.20;1.00;;;;;;2273021;60;1478;-83
2021/08/17 09:27:01;256650.00;0.86;443.39;65994.00;0.22;114.84;;;;;25.10;1.00;;;;;;2273066;61;1236;-83
2021/08/17 09:29:33;158831.00;0.53;275.03;50656.00;0.17;88.32;;;;;25.00;1.00;;;;;;2273045;60;967;-83
2021/08/17 09:32:03;257970.00;0.86;445.66;70423.00;0.23;122.49;;;;;25.10;1.00;;;;;;2280852;60;1044;-83
2021/08/17 09:34:34;168434.00;0.56;291.57;71599.00;0.24;124.52;;;;;25.30;1.00;;;;;;2273719;60;1333;-84
2021/08/17 09:37:08;346717.00;1.16;598.22;106786.00;0.36;185.28;;;;;25.40;1.00;;;;;;2273764;61;974;-83
2021/08/17 09:39:40;184541.00;0.62;319.31;67330.00;0.22;117.15;;;;;25.30;1.00;;;;;;2280739;60;1919;-85
2021/08/17 09:42:12;54064.00;0.18;94.21;0.00;0.00;0.62;;;;;24.90;1.00;;;;;;2273724;61;970;-84
2021/08/17 09:44:43;205948.00;0.69;356.16;70588.00;0.24;122.78;;;;;24.60;1.00;;;;;;2280790;60;1368;-85
2021/08/17 09:47:09;0.00;0.00;0.62;0.00;0.00;0.62;;;;;24.80;1.00;;;;;;2280886;61;1026;-85
2021/08/17 09:49:36;25435.00;0.08;44.68;0.00;0.00;0.62;;;;;25.20;1.00;;;;;;2273661;60;981;-84
2021/08/17 09:52:14;19147.00;0.06;33.79;0.00;0.00;0.62;;;;;25.60;1.00;;;;;;2273574;60;1014;-85